Time,TemperatureF,DewpointF,PressureIn,WindDirection,WindDirectionDegrees,WindSpeedMPH,WindSpeedGustMPH,Humidity,HourlyPrecipIn,Conditions,Clouds,dailyrainin,SoftwareType,DateUTC
2013-09-07 00:02:00,47.3,45.0,30.05,SSW,201,0.0,-999.0,92,-99.99,,,0.01,weatherlink.com 1.10,2013-09-07 04:02:00,
2013-09-07 00:17:00,47.1,45.0,30.05,SSW,201,0.0,-999.0,92,-99.99,,,0.00,weatherlink.com 1.10,2013-09-07 04:17:00,
2013-09-07 00:32:00,46.9,45.0,30.05,SSW,202,0.0,-999.0,93,-99.99,,,0.00,weatherlink.com 1.10,2013-09-07 04:32:00,
2013-09-07 00:47:00,47.0,45.0,30.05,SSW,194,0.0,-999.0,92,-99.99,,,0.00,weatherlink.com 1.10,2013-09-07 04:47:00,
2013-09-07 01:02:00,46.8,45.0,30.05,SSW,194,0.0,-999.0,93,-99.99,,,0.00,weatherlink.com 1.10,2013-09-07 05:02:00,
2013-09-07 01:17:00,46.7,45.0,30.05,SSW,194,0.0,-999.0,93,-99.99,,,0.00,weatherlink.com 1.10,2013-09-07 05:17:00,
2013-09-07 01:32:00,46.8,45.0,30.05,SSW,194,0.0,-999.0,93,-99.99,,,0.00,weatherlink.com 1.10,2013-09-07 05:32:00,
2013-09-07 01:47:00,46.8,45.0,30.04,SSW,194,0.0,-999.0,93,-99.99,,,0.00,weatherlink.com 1.10,2013-09-07 05:47:00,
2013-09-07 02:02:00,46.7,45.0,30.04,SSW,194,0.0,-999.0,93,-99.99,,,0.00,weatherlink.com 1.10,2013-09-07 06:02:00,
2013-09-07 02:17:00,46.4,45.0,30.02,SSW,194,0.0,-999.0,93,-99.99,,,0.00,weatherlink.com 1.10,2013-09-07 06:17:00,
2013-09-07 02:32:00,46.3,44.0,30.03,SSW,194,0.0,-999.0,93,-99.99,,,0.00,weatherlink.com 1.10,2013-09-07 06:32:00,
2013-09-07 02:47:00,46.4,45.0,30.03,SSW,196,0.0,-999.0,93,-99.99,,,0.00,weatherlink.com 1.10,2013-09-07 06:47:00,
2013-09-07 03:02:00,46.5,45.0,30.03,SSW,196,0.0,-999.0,93,-99.99,,,0.00,weatherlink.com 1.10,2013-09-07 07:02:00,
2013-09-07 03:17:00,46.4,45.0,30.03,SSW,196,0.0,-999.0,93,-99.99,,,0.00,weatherlink.com 1.10,2013-09-07 07:17:00,
2013-09-07 03:32:00,46.3,44.0,30.03,SSW,196,0.0,-999.0,93,-99.99,,,0.00,weatherlink.com 1.10,2013-09-07 07:32:00,
2013-09-07 03:47:00,46.5,45.0,30.02,SSW,196,0.0,-999.0,93,-99.99,,,0.00,weatherlink.com 1.10,2013-09-07 07:47:00,
2013-09-07 04:02:00,46.3,44.0,30.02,SSW,196,0.0,-999.0,93,-99.99,,,0.00,weatherlink.com 1.10,2013-09-07 08:02:00,
2013-09-07 04:17:00,46.2,44.0,30.02,SSW,196,0.0,-999.0,93,-99.99,,,0.00,weatherlink.com 1.10,2013-09-07 08:17:00,
2013-09-07 04:32:00,46.1,44.0,30.02,SSW,196,0.0,-999.0,93,-99.99,,,0.00,weatherlink.com 1.10,2013-09-07 08:32:00,
2013-09-07 04:47:00,45.8,44.0,30.03,SSW,196,0.0,-999.0,93,-99.99,,,0.00,weatherlink.com 1.10,2013-09-07 08:47:00,
2013-09-07 05:02:00,45.7,44.0,30.02,SSW,196,0.0,-999.0,93,-99.99,,,0.00,weatherlink.com 1.10,2013-09-07 09:02:00,
2013-09-07 05:17:00,45.4,44.0,30.01,SSW,196,0.0,-999.0,93,-99.99,,,0.00,weatherlink.com 1.10,2013-09-07 09:17:00,
2013-09-07 05:32:00,45.6,44.0,30.02,SSW,196,0.0,-999.0,93,-99.99,,,0.00,weatherlink.com 1.10,2013-09-07 09:32:00,
2013-09-07 05:47:00,45.5,44.0,30.01,South,184,0.0,-999.0,93,-99.99,,,0.00,weatherlink.com 1.10,2013-09-07 09:47:00,
2013-09-07 06:02:00,45.5,44.0,30.01,South,184,0.0,-999.0,93,-99.99,,,0.00,weatherlink.com 1.10,2013-09-07 10:02:00,
2013-09-07 06:17:00,45.6,44.0,30.01,SW,221,0.0,-999.0,93,-99.99,,,0.00,weatherlink.com 1.10,2013-09-07 10:17:00,
2013-09-07 06:32:00,45.6,44.0,30.01,SW,220,0.0,-999.0,93,-99.99,,,0.00,weatherlink.com 1.10,2013-09-07 10:32:00,
2013-09-07 06:47:00,45.5,44.0,30.01,SW,220,0.0,-999.0,93,-99.99,,,0.00,weatherlink.com 1.10,2013-09-07 10:47:00,
2013-09-07 07:02:00,45.8,44.0,30.03,SW,220,0.0,-999.0,93,-99.99,,,0.00,weatherlink.com 1.10,2013-09-07 11:02:00,
2013-09-07 07:17:00,46.4,45.0,30.02,SW,220,0.0,-999.0,93,-99.99,,,0.00,weatherlink.com 1.10,2013-09-07 11:17:00,
2013-09-07 07:33:00,47.2,45.0,30.02,SW,219,0.0,-999.0,93,-99.99,,,0.00,weatherlink.com 1.10,2013-09-07 11:33:00,
2013-09-07 07:47:00,48.2,46.0,30.01,SSW,211,0.0,-999.0,93,-99.99,,,0.00,weatherlink.com 1.10,2013-09-07 11:47:00,
2013-09-07 08:02:00,49.3,47.0,30.01,SSW,211,0.0,-999.0,93,-99.99,,,0.00,weatherlink.com 1.10,2013-09-07 12:02:00,
2013-09-07 08:17:00,50.8,49.0,30.00,SSW,204,0.0,-999.0,93,-99.99,,,0.00,weatherlink.com 1.10,2013-09-07 12:17:00,
2013-09-07 08:32:00,52.8,51.0,30.00,SSW,206,0.0,-999.0,93,-99.99,,,0.00,weatherlink.com 1.10,2013-09-07 12:32:00,
2013-09-07 08:47:00,55.3,53.0,30.00,SSW,203,0.0,-999.0,93,-99.99,,,0.00,weatherlink.com 1.10,2013-09-07 12:47:00,
2013-09-07 09:02:00,57.6,55.0,30.00,South,190,0.0,-999.0,91,-99.99,,,0.00,weatherlink.com 1.10,2013-09-07 13:02:00,
2013-09-07 09:17:00,59.1,54.0,29.99,WSW,240,0.0,-999.0,83,-99.99,,,0.00,weatherlink.com 1.10,2013-09-07 13:17:00,
2013-09-07 09:32:00,61.1,54.0,29.99,SSW,212,0.0,-999.0,78,-99.99,,,0.00,weatherlink.com 1.10,2013-09-07 13:32:00,
2013-09-07 09:47:00,62.2,53.0,29.99,West,271,0.0,-999.0,72,-99.99,,,0.00,weatherlink.com 1.10,2013-09-07 13:47:00,
2013-09-07 10:02:00,63.6,54.0,29.98,SW,229,0.0,-999.0,70,-99.99,,,0.00,weatherlink.com 1.10,2013-09-07 14:02:00,
2013-09-07 10:17:00,65.1,56.0,29.99,SW,214,0.0,-999.0,73,-99.99,,,0.00,weatherlink.com 1.10,2013-09-07 14:17:00,
2013-09-07 10:32:00,66.3,55.0,29.99,WNW,285,0.0,-999.0,67,-99.99,,,0.00,weatherlink.com 1.10,2013-09-07 14:32:00,
2013-09-07 10:47:00,67.3,55.0,29.98,WSW,250,0.0,-999.0,64,-99.99,,,0.00,weatherlink.com 1.10,2013-09-07 14:47:00,
2013-09-07 11:02:00,68.3,56.0,29.97,SSW,198,0.0,-999.0,64,-99.99,,,0.00,weatherlink.com 1.10,2013-09-07 15:02:00,
2013-09-07 11:17:00,69.4,57.0,29.97,WSW,253,0.0,-999.0,65,-99.99,,,0.00,weatherlink.com 1.10,2013-09-07 15:17:00,
2013-09-07 11:32:00,70.7,57.0,29.95,SSW,200,0.0,-999.0,63,-99.99,,,0.00,weatherlink.com 1.10,2013-09-07 15:32:00,
2013-09-07 11:47:00,71.3,57.0,29.95,WSW,239,0.0,-999.0,61,-99.99,,,0.00,weatherlink.com 1.10,2013-09-07 15:47:00,
2013-09-07 12:02:00,72.4,60.0,29.94,West,263,0.0,-999.0,65,-99.99,,,0.00,weatherlink.com 1.10,2013-09-07 16:02:00,
2013-09-07 12:17:00,72.9,56.0,29.94,SW,214,0.0,-999.0,55,-99.99,,,0.00,weatherlink.com 1.10,2013-09-07 16:17:00,
2013-09-07 12:32:00,73.4,55.0,29.93,West,274,0.0,-999.0,52,-99.99,,,0.00,weatherlink.com 1.10,2013-09-07 16:32:00,
2013-09-07 12:47:00,74.0,54.0,29.92,WNW,298,0.0,-999.0,50,-99.99,,,0.00,weatherlink.com 1.10,2013-09-07 16:47:00,
2013-09-07 13:02:00,75.5,61.0,29.92,SSW,202,0.0,-999.0,62,-99.99,,,0.00,weatherlink.com 1.10,2013-09-07 17:02:00,
2013-09-07 13:17:00,75.9,54.0,29.92,WSW,257,0.0,-999.0,47,-99.99,,,0.00,weatherlink.com 1.10,2013-09-07 17:17:00,
2013-09-07 13:32:00,75.9,54.0,29.91,WSW,254,0.0,-999.0,47,-99.99,,,0.00,weatherlink.com 1.10,2013-09-07 17:32:00,
2013-09-07 13:47:00,76.5,54.0,29.91,WSW,246,0.0,-999.0,45,-99.99,,,0.00,weatherlink.com 1.10,2013-09-07 17:47:00,
2013-09-07 14:02:00,76.8,58.0,29.90,SSW,200,0.0,-999.0,52,-99.99,,,0.00,weatherlink.com 1.10,2013-09-07 18:02:00,
2013-09-07 14:17:00,77.6,57.0,29.89,WNW,301,0.0,-999.0,50,-99.99,,,0.00,weatherlink.com 1.10,2013-09-07 18:17:00,
2013-09-07 14:32:00,77.4,54.0,29.88,SW,234,0.0,-999.0,45,-99.99,,,0.00,weatherlink.com 1.10,2013-09-07 18:32:00,
2013-09-07 14:47:00,77.8,55.0,29.88,SSW,198,0.0,-999.0,46,-99.99,,,0.00,weatherlink.com 1.10,2013-09-07 18:47:00,
2013-09-07 15:02:00,77.1,55.0,29.87,WSW,242,0.0,-999.0,47,-99.99,,,0.00,weatherlink.com 1.10,2013-09-07 19:02:00,
2013-09-07 15:17:00,75.8,58.0,29.87,WNW,290,0.0,-999.0,54,-99.99,,,0.00,weatherlink.com 1.10,2013-09-07 19:17:00,
2013-09-07 15:32:00,74.0,58.0,29.87,WSW,238,0.0,-999.0,58,-99.99,,,0.00,weatherlink.com 1.10,2013-09-07 19:32:00,
2013-09-07 15:47:00,74.7,64.0,29.86,SSW,210,0.0,-999.0,70,-99.99,,,0.00,weatherlink.com 1.10,2013-09-07 19:47:00,
2013-09-07 16:02:00,73.8,63.0,29.86,West,281,0.0,-999.0,68,-99.99,,,0.00,weatherlink.com 1.10,2013-09-07 20:02:00,
2013-09-07 16:17:00,73.1,59.0,29.86,SSW,212,0.0,-999.0,61,-99.99,,,0.00,weatherlink.com 1.10,2013-09-07 20:17:00,
2013-09-07 16:32:00,73.9,64.0,29.85,South,184,0.0,-999.0,72,-99.99,,,0.00,weatherlink.com 1.10,2013-09-07 20:32:00,
2013-09-07 16:47:00,73.1,60.0,29.85,SSW,208,0.0,-999.0,64,-99.99,,,0.00,weatherlink.com 1.10,2013-09-07 20:47:00,
2013-09-07 17:02:00,71.7,60.0,29.86,West,263,0.0,-999.0,67,-99.99,,,0.00,weatherlink.com 1.10,2013-09-07 21:02:00,
2013-09-07 17:17:00,70.9,63.0,29.86,SW,221,0.0,-999.0,75,-99.99,,,0.00,weatherlink.com 1.10,2013-09-07 21:17:00,
2013-09-07 17:32:00,70.4,64.0,29.85,WSW,240,0.0,-999.0,81,-99.99,,,0.00,weatherlink.com 1.10,2013-09-07 21:32:00,
2013-09-07 17:47:00,69.7,62.0,29.85,WSW,248,0.0,-999.0,77,-99.99,,,0.00,weatherlink.com 1.10,2013-09-07 21:47:00,
2013-09-07 18:02:00,69.1,63.0,29.85,WSW,238,0.0,-999.0,80,-99.99,,,0.00,weatherlink.com 1.10,2013-09-07 22:02:00,
2013-09-07 18:17:00,67.4,63.0,29.85,WSW,238,0.0,-999.0,85,-99.99,,,0.00,weatherlink.com 1.10,2013-09-07 22:17:00,
2013-09-07 18:32:00,66.0,62.0,29.85,WSW,238,0.0,-999.0,86,-99.99,,,0.00,weatherlink.com 1.10,2013-09-07 22:32:00,
2013-09-07 18:47:00,64.9,61.0,29.85,WSW,238,0.0,-999.0,87,-99.99,,,0.00,weatherlink.com 1.10,2013-09-07 22:47:00,
2013-09-07 19:02:00,63.8,61.0,29.85,SW,234,0.0,-999.0,89,-99.99,,,0.00,weatherlink.com 1.10,2013-09-07 23:02:00,
2013-09-07 19:17:00,63.3,60.0,29.85,SW,234,0.0,-999.0,89,-99.99,,,0.00,weatherlink.com 1.10,2013-09-07 23:17:00,
2013-09-07 19:32:00,63.3,60.0,29.85,SW,233,0.0,-999.0,90,-99.99,,,0.00,weatherlink.com 1.10,2013-09-07 23:32:00,
2013-09-07 19:47:00,62.9,60.0,29.84,SW,233,0.0,-999.0,90,-99.99,,,0.00,weatherlink.com 1.10,2013-09-07 23:47:00,
2013-09-07 20:02:00,62.8,60.0,29.85,SW,234,0.0,-999.0,90,-99.99,,,0.00,weatherlink.com 1.10,2013-09-08 00:02:00,
2013-09-07 20:17:00,62.4,60.0,29.84,SW,234,0.0,-999.0,90,-99.99,,,0.00,weatherlink.com 1.10,2013-09-08 00:17:00,
2013-09-07 20:32:00,62.2,59.0,29.85,SW,234,0.0,-999.0,90,-99.99,,,0.00,weatherlink.com 1.10,2013-09-08 00:32:00,
2013-09-07 20:47:00,62.0,59.0,29.84,SW,225,0.0,-999.0,90,-99.99,,,0.00,weatherlink.com 1.10,2013-09-08 00:47:00,
2013-09-07 21:02:00,61.9,59.0,29.84,SW,221,0.0,-999.0,90,-99.99,,,0.00,weatherlink.com 1.10,2013-09-08 01:02:00,
2013-09-07 21:17:00,61.8,59.0,29.85,SW,234,0.0,-999.0,90,-99.99,,,0.00,weatherlink.com 1.10,2013-09-08 01:17:00,
2013-09-07 21:32:00,61.8,59.0,29.84,SW,229,0.0,-999.0,90,-99.99,,,0.00,weatherlink.com 1.10,2013-09-08 01:32:00,
2013-09-07 21:47:00,61.7,59.0,29.84,SW,223,0.0,-999.0,90,-99.99,,,0.00,weatherlink.com 1.10,2013-09-08 01:47:00,
2013-09-07 22:02:00,61.4,59.0,29.84,SW,223,0.0,-999.0,91,-99.99,,,0.00,weatherlink.com 1.10,2013-09-08 02:02:00,
2013-09-07 22:17:00,61.3,59.0,29.84,SW,223,0.0,-999.0,91,-99.99,,,0.00,weatherlink.com 1.10,2013-09-08 02:17:00,
2013-09-07 22:32:00,61.1,59.0,29.84,SW,223,0.0,-999.0,91,-99.99,,,0.00,weatherlink.com 1.10,2013-09-08 02:32:00,
2013-09-07 22:47:00,60.9,58.0,29.84,SW,223,0.0,-999.0,91,-99.99,,,0.01,weatherlink.com 1.10,2013-09-08 02:47:00,
2013-09-07 23:02:00,60.7,58.0,29.83,SW,223,0.0,-999.0,91,-99.99,,,0.01,weatherlink.com 1.10,2013-09-08 03:02:00,
2013-09-07 23:17:00,60.7,58.0,29.83,SW,223,0.0,-999.0,91,-99.99,,,0.01,weatherlink.com 1.10,2013-09-08 03:17:00,
2013-09-07 23:32:00,60.7,58.0,29.81,SW,223,0.0,-999.0,91,-99.99,,,0.01,weatherlink.com 1.10,2013-09-08 03:32:00,
2013-09-07 23:47:00,60.7,58.0,29.81,SSW,213,0.0,-999.0,91,-99.99,,,0.01,weatherlink.com 1.10,2013-09-08 03:47:00,